Impacts METAR Board INFO
IDs:

KMEM - Memphis Intl, TN, US

Updated at: 0823 UTC 22 Jan 2018
Potential Impact None Slight Moderate High
Time21/20Z 21/21Z 21/22Z 21/23Z 22/00Z 22/01Z 22/02Z 22/03Z 22/04Z 22/05Z 22/06Z 22/07Z 22/08Z
VIS10 10 10 10 10 10 10 10 10 10 10 10 10
CIG26 75 95 200 200 200 55 55 55 55 60 250 70
CoverBKNBKNBKNBKNOVCOVCOVCOVCOVCOVCOVCOVCOVC
FltCatMVFRVFRVFRVFRVFRVFRVFRVFRVFRVFRVFRVFRVFR
WX--------------------------
WDir200200190180160170150150160170160160170
WSpd15 16 12 14 12 10 7 8 11 14 15 15 18
WGst23 23 22 -- -- -- -- -- -- -- 21 -- 25
Raw hourly METARs
KMEM 211954Z 20015G23KT 10SM BKN026 BKN035 19/13 A3002 RMK AO2 SLP162 T01890128 $
KMEM 212054Z 20016G23KT 10SM SCT026 BKN075 BKN090 19/13 A3000 RMK AO2 PK WND 18027/2003 SLP156 T01940128 56024 $
KMEM 212154Z 19012G22KT 10SM FEW030 BKN095 BKN250 19/13 A2999 RMK AO2 PK WND 19026/2104 SLP153 T01940128 $
KMEM 212254Z 18014KT 10SM FEW034 SCT090 BKN200 19/12 A2998 RMK AO2 SLP149 T01890122 $
KMEM 212354Z 16012KT 10SM FEW043 SCT085 OVC200 19/12 A2996 RMK AO2 SLP142 T01890117 10200 20183 58014 $
KMEM 220054Z 17010KT 10SM SCT060 SCT130 OVC200 19/12 A2994 RMK AO2 SLP138 T01890117 $
KMEM 220154Z 15007KT 10SM OVC055 18/12 A2994 RMK AO2 SLP137 T01780117 $
KMEM 220254Z 15008KT 10SM FEW040 OVC055 17/10 A2993 RMK AO2 SLP134 T01720100 56008 $
KMEM 220354Z 16011KT 10SM OVC055 17/10 A2992 RMK AO2 SLP128 T01720100 $
KMEM 220454Z 17014KT 10SM BKN055 OVC130 18/11 A2991 RMK AO2 SLP127 T01780106 $
KMEM 220554Z 16015G21KT 10SM FEW040 BKN060 OVC095 17/11 A2989 RMK AO2 SLP118 T01720106 10189 20172 402000117 58016 $
KMEM 220654Z 16015KT 10SM FEW041 FEW055 OVC250 17/10 A2984 RMK AO2 RAB26E35 SLP101 P0000 T01720100 $
KMEM 220754Z 17018G25KT 10SM BKN070 BKN085 OVC250 17/09 A2982 RMK AO2 SLP095 T01720094 $